createdAt,value
2023-05-13T00:01:20.902Z,47.19
2023-05-13T00:03:51.738Z,46.66
2023-05-13T00:06:22.159Z,46.88
2023-05-13T00:08:52.762Z,46.98
2023-05-13T00:11:23.311Z,47.82
2023-05-13T00:13:53.816Z,47.84
2023-05-13T00:16:25.945Z,47.59
2023-05-13T00:18:57.479Z,47.44
2023-05-13T00:21:27.760Z,47.59
2023-05-13T00:23:58.655Z,47.73
2023-05-13T00:26:29.052Z,48.10
2023-05-13T00:28:59.547Z,48.87
2023-05-13T00:31:30.153Z,49.17
2023-05-13T00:34:00.706Z,48.78
2023-05-13T00:36:31.392Z,48.65
2023-05-13T00:39:01.860Z,49.30
2023-05-13T00:41:50.192Z,48.48
2023-05-13T00:44:20.883Z,48.97
2023-05-13T00:46:52.497Z,49.34
2023-05-13T00:49:23.382Z,48.84
2023-05-13T00:51:56.650Z,49.19
2023-05-13T00:54:27.057Z,49.52
2023-05-13T00:56:58.464Z,49.65
2023-05-13T00:59:32.605Z,49.76
2023-05-13T01:02:20.204Z,48.99
2023-05-13T01:05:22.009Z,48.62
2023-05-13T01:08:06.107Z,48.69
2023-05-13T01:10:51.207Z,48.26
2023-05-13T01:13:26.723Z,48.44
2023-05-13T01:16:17.072Z,47.88
2023-05-13T01:18:59.505Z,47.77
2023-05-13T01:21:31.177Z,47.67
2023-05-13T01:24:01.621Z,47.21
2023-05-13T01:26:32.132Z,47.13
2023-05-13T01:29:02.907Z,47.45
2023-05-13T01:31:34.144Z,46.79
2023-05-13T01:34:07.816Z,47.09
2023-05-13T01:36:39.054Z,46.85
2023-05-13T01:39:10.951Z,46.23
2023-05-13T01:41:41.498Z,46.85
2023-05-13T01:44:12.037Z,46.55
2023-05-13T01:46:44.789Z,46.40
2023-05-13T01:49:15.808Z,45.90
2023-05-13T01:51:47.966Z,46.29
2023-05-13T01:54:18.394Z,46.02
2023-05-13T01:56:54.520Z,46.18
2023-05-13T01:59:25.015Z,46.00
2023-05-13T02:01:56.318Z,46.01
2023-05-13T02:04:29.640Z,45.69
2023-05-13T02:07:01.211Z,45.56
2023-05-13T02:09:34.144Z,45.98
2023-05-13T02:12:04.868Z,45.68
2023-05-13T02:14:53.305Z,45.60
2023-05-13T02:17:24.407Z,45.23
2023-05-13T02:19:55.884Z,45.53
2023-05-13T02:22:26.568Z,45.37
2023-05-13T02:24:57.090Z,45.49
2023-05-13T02:27:27.783Z,45.77
2023-05-13T02:29:58.326Z,45.39
2023-05-13T02:32:29.017Z,44.90
2023-05-13T02:34:59.629Z,45.15
2023-05-13T02:37:30.047Z,45.13
2023-05-13T02:40:05.139Z,44.57
2023-05-13T02:42:35.632Z,44.00
2023-05-13T02:45:06.314Z,44.51
2023-05-13T02:47:39.231Z,44.14
2023-05-13T02:50:11.718Z,44.33
2023-05-13T02:52:43.222Z,45.10
2023-05-13T02:55:13.701Z,45.54
2023-05-13T02:57:45.740Z,45.33
2023-05-13T03:00:16.991Z,45.29
2023-05-13T03:02:47.484Z,45.67
2023-05-13T03:05:18.054Z,46.61
2023-05-13T03:07:49.237Z,46.97
2023-05-13T03:10:19.973Z,47.04
2023-05-13T03:12:50.479Z,47.89
2023-05-13T03:15:22.185Z,48.82
2023-05-13T03:18:10.648Z,48.63
2023-05-13T03:20:41.152Z,47.95
2023-05-13T03:23:11.631Z,48.71
2023-05-13T03:25:42.273Z,48.00
2023-05-13T03:28:12.784Z,48.60
2023-05-13T03:30:46.237Z,48.70
2023-05-13T03:33:20.750Z,48.06
2023-05-13T03:35:51.480Z,47.69
2023-05-13T03:38:27.454Z,48.65
2023-05-13T03:40:58.067Z,47.68
2023-05-13T03:43:28.970Z,47.70
2023-05-13T03:46:04.162Z,47.72
2023-05-13T03:48:34.659Z,47.92
2023-05-13T03:51:05.866Z,47.66
2023-05-13T03:53:36.548Z,47.66
2023-05-13T03:56:07.543Z,48.28
2023-05-13T03:58:55.980Z,48.15
2023-05-13T04:01:27.315Z,48.36
2023-05-13T04:03:57.856Z,48.37
2023-05-13T04:06:28.253Z,47.52
2023-05-13T04:08:58.618Z,47.91
2023-05-13T04:11:29.289Z,48.30
2023-05-13T04:14:00.254Z,47.70
2023-05-13T04:16:49.068Z,47.91
2023-05-13T04:19:19.621Z,47.82
2023-05-13T04:21:50.194Z,47.28
2023-05-13T04:24:20.562Z,47.75
2023-05-13T04:26:52.112Z,47.34
2023-05-13T04:29:22.363Z,47.99
2023-05-13T04:31:53.675Z,47.19
2023-05-13T04:34:24.280Z,47.67
2023-05-13T04:36:55.325Z,47.92
2023-05-13T04:39:25.771Z,47.28
2023-05-13T04:41:56.030Z,47.33
2023-05-13T04:44:26.861Z,47.75
2023-05-13T04:46:57.281Z,47.63
2023-05-13T04:49:27.956Z,47.19
2023-05-13T04:51:59.082Z,47.05
2023-05-13T04:54:29.696Z,47.27
2023-05-13T04:57:00.203Z,47.34
2023-05-13T04:59:30.813Z,47.97
2023-05-13T05:02:01.260Z,47.24
2023-05-13T05:04:31.889Z,47.15
2023-05-13T05:07:02.654Z,47.21
2023-05-13T05:09:33.091Z,47.11
2023-05-13T05:12:03.509Z,47.65
2023-05-13T05:14:35.974Z,47.78
2023-05-13T05:17:06.622Z,47.31
2023-05-13T05:19:37.144Z,47.22
2023-05-13T05:22:08.211Z,47.27
2023-05-13T05:24:38.830Z,47.67
2023-05-13T05:27:09.192Z,46.92
2023-05-13T05:29:39.684Z,47.33
2023-05-13T05:32:10.543Z,47.06
2023-05-13T05:34:41.636Z,47.16
2023-05-13T05:37:12.626Z,47.04
2023-05-13T05:39:44.445Z,46.69
2023-05-13T05:42:15.420Z,47.06
2023-05-13T05:44:46.064Z,47.36
2023-05-13T05:47:16.631Z,47.04
2023-05-13T05:49:47.897Z,46.97
2023-05-13T05:52:19.055Z,47.52
2023-05-13T05:54:49.737Z,47.49
2023-05-13T05:57:20.626Z,47.56
2023-05-13T05:59:51.482Z,47.19
2023-05-13T06:02:21.935Z,47.57
2023-05-13T06:04:54.630Z,47.68
2023-05-13T06:07:25.087Z,47.55
2023-05-13T06:09:55.825Z,47.22
2023-05-13T06:12:26.512Z,47.48
2023-05-13T06:14:57.261Z,47.74
2023-05-13T06:17:28.044Z,47.02
2023-05-13T06:19:58.530Z,47.19
2023-05-13T06:22:28.974Z,47.75
2023-05-13T06:24:59.474Z,47.12
2023-05-13T06:27:29.917Z,47.09
2023-05-13T06:30:00.430Z,47.55
2023-05-13T06:32:30.854Z,47.07
2023-05-13T06:35:01.175Z,47.38
2023-05-13T06:37:31.948Z,47.57
2023-05-13T06:40:02.874Z,47.45
2023-05-13T06:42:35.099Z,47.55
2023-05-13T06:45:14.301Z,47.08
2023-05-13T06:47:45.427Z,47.10
2023-05-13T06:50:15.870Z,47.08
2023-05-13T06:52:46.355Z,47.79
2023-05-13T06:55:18.163Z,46.86
2023-05-13T06:57:48.734Z,47.19
2023-05-13T07:00:19.872Z,47.53
2023-05-13T07:02:50.421Z,47.44
2023-05-13T07:05:20.845Z,47.38
2023-05-13T07:07:55.062Z,46.76
2023-05-13T07:10:25.682Z,46.96
2023-05-13T07:12:56.006Z,47.58
2023-05-13T07:15:26.699Z,47.38
2023-05-13T07:17:57.631Z,47.17
2023-05-13T07:20:28.651Z,47.53
2023-05-13T07:23:17.062Z,46.69
2023-05-13T07:25:47.628Z,47.15
2023-05-13T07:28:18.097Z,47.10
2023-05-13T07:30:48.715Z,47.55
2023-05-13T07:33:19.196Z,47.24
2023-05-13T07:35:49.632Z,47.17
2023-05-13T07:38:20.660Z,47.43
2023-05-13T07:40:51.326Z,47.37
2023-05-13T07:43:25.284Z,47.35
2023-05-13T07:45:55.823Z,47.51
2023-05-13T07:48:27.267Z,47.39
2023-05-13T07:50:59.333Z,46.62
2023-05-13T07:53:29.896Z,47.31
2023-05-13T07:56:00.292Z,46.84
2023-05-13T07:58:30.746Z,47.19
2023-05-13T08:01:01.387Z,46.52
2023-05-13T08:03:31.982Z,46.71
2023-05-13T08:06:02.506Z,47.18
2023-05-13T08:08:32.916Z,46.87
2023-05-13T08:11:03.335Z,46.82
2023-05-13T08:13:33.841Z,46.70
2023-05-13T08:16:05.035Z,46.61
2023-05-13T08:18:35.856Z,47.32
2023-05-13T08:21:06.534Z,46.92
2023-05-13T08:23:45.287Z,46.73
2023-05-13T08:26:16.575Z,47.40
2023-05-13T08:28:48.027Z,47.25
2023-05-13T08:31:18.669Z,47.29
2023-05-13T08:33:50.135Z,46.61
2023-05-13T08:36:21.253Z,46.93
2023-05-13T08:38:51.833Z,46.55
2023-05-13T08:41:24.264Z,46.73
2023-05-13T08:43:58.845Z,46.96
2023-05-13T08:46:38.178Z,46.38
2023-05-13T08:49:11.059Z,46.25
2023-05-13T08:51:42.608Z,46.95
2023-05-13T08:54:13.287Z,46.48
2023-05-13T08:56:43.664Z,46.11
2023-05-13T08:59:14.016Z,46.96
2023-05-13T09:01:45.858Z,46.59
2023-05-13T09:04:16.515Z,46.86
2023-05-13T09:06:50.322Z,46.10
2023-05-13T09:09:21.110Z,46.54
2023-05-13T09:11:52.061Z,46.53
2023-05-13T09:14:22.552Z,45.96
2023-05-13T09:16:53.335Z,45.97
2023-05-13T09:19:26.848Z,46.64
2023-05-13T09:21:59.113Z,46.56
2023-05-13T09:24:29.879Z,46.46
2023-05-13T09:27:00.310Z,46.65
2023-05-13T09:29:33.518Z,46.65
2023-05-13T09:32:09.181Z,45.68
2023-05-13T09:34:39.646Z,45.89
2023-05-13T09:37:11.038Z,45.81
2023-05-13T09:39:43.426Z,46.02
2023-05-13T09:42:21.628Z,46.28
2023-05-13T09:44:52.239Z,45.59
2023-05-13T09:47:22.718Z,45.94
2023-05-13T09:49:59.540Z,44.86
2023-05-13T09:52:35.304Z,45.97
2023-05-13T09:55:06.952Z,45.19
2023-05-13T09:57:37.758Z,45.20
2023-05-13T10:00:17.845Z,45.57
2023-05-13T10:02:55.861Z,45.61
2023-05-13T10:05:26.974Z,45.53
2023-05-13T10:07:58.875Z,45.23
2023-05-13T10:10:32.346Z,45.64
2023-05-13T10:13:10.822Z,45.36
2023-05-13T10:15:54.756Z,44.95
2023-05-13T10:18:26.410Z,44.92
2023-05-13T10:20:57.680Z,44.90
2023-05-13T10:23:49.139Z,45.21
2023-05-13T10:26:19.773Z,45.08
2023-05-13T10:28:51.166Z,45.03
2023-05-13T10:31:21.767Z,44.71
2023-05-13T10:33:55.691Z,43.95
2023-05-13T10:36:41.070Z,44.64
2023-05-13T10:39:48.514Z,44.29
2023-05-13T10:42:39.813Z,44.14
2023-05-13T10:45:11.653Z,44.78
2023-05-13T10:48:08.986Z,44.58
2023-05-13T10:50:43.526Z,44.49
2023-05-13T10:53:24.454Z,44.75
2023-05-13T10:56:02.030Z,44.30
2023-05-13T10:58:39.372Z,45.05
2023-05-13T11:01:16.277Z,44.99
2023-05-13T11:03:58.076Z,44.00
2023-05-13T11:06:39.601Z,44.21
2023-05-13T11:09:14.396Z,44.76
2023-05-13T11:12:03.249Z,44.77
2023-05-13T11:14:51.632Z,44.08
2023-05-13T11:17:22.330Z,44.30
2023-05-13T11:19:53.547Z,44.00
2023-05-13T11:22:29.146Z,44.39
2023-05-13T11:25:11.041Z,43.94
2023-05-13T11:27:45.237Z,44.96
2023-05-13T11:30:28.231Z,44.32
2023-05-13T11:33:00.581Z,44.34
2023-05-13T11:35:35.068Z,44.23
2023-05-13T11:38:07.260Z,44.59
2023-05-13T11:40:40.380Z,44.30
2023-05-13T11:43:13.747Z,43.93
2023-05-13T11:45:43.851Z,44.65
2023-05-13T11:48:22.369Z,44.45
2023-05-13T11:50:53.555Z,44.28
2023-05-13T11:53:24.549Z,43.90
2023-05-13T11:55:55.018Z,44.54
2023-05-13T11:58:25.555Z,44.20
2023-05-13T12:00:57.469Z,44.14
2023-05-13T12:03:30.417Z,44.77
2023-05-13T12:06:07.175Z,44.56
2023-05-13T12:08:37.805Z,44.39
2023-05-13T12:11:11.668Z,44.70
2023-05-13T12:13:44.260Z,44.13
2023-05-13T12:16:14.744Z,44.18
2023-05-13T12:18:45.208Z,44.16
2023-05-13T12:21:19.584Z,43.98
2023-05-13T12:23:50.227Z,44.01
2023-05-13T12:26:21.663Z,44.25
2023-05-13T12:29:00.498Z,44.47
2023-05-13T12:31:30.994Z,44.32
2023-05-13T12:34:01.387Z,44.28
2023-05-13T12:36:37.763Z,44.39
2023-05-13T12:39:13.001Z,43.64
2023-05-13T12:41:45.314Z,44.32
2023-05-13T12:44:17.249Z,44.10
2023-05-13T12:47:02.871Z,43.47
2023-05-13T12:49:33.272Z,43.90
2023-05-13T12:52:23.164Z,43.75
2023-05-13T12:54:53.637Z,44.17
2023-05-13T12:57:24.452Z,43.48
2023-05-13T12:59:55.278Z,44.15
2023-05-13T13:02:25.724Z,44.15
2023-05-13T13:04:56.227Z,43.93
2023-05-13T13:07:26.642Z,43.95
2023-05-13T13:09:57.121Z,43.72
2023-05-13T13:12:27.719Z,43.39
2023-05-13T13:14:59.189Z,43.43
2023-05-13T13:17:29.835Z,44.10
2023-05-13T13:20:00.249Z,43.51
2023-05-13T13:22:31.013Z,43.97
2023-05-13T13:25:01.491Z,43.40
2023-05-13T13:27:31.913Z,43.33
2023-05-13T13:30:02.366Z,43.89
2023-05-13T13:32:33.327Z,44.12
2023-05-13T13:35:04.977Z,43.83
2023-05-13T13:37:36.196Z,43.35
2023-05-13T13:40:09.928Z,43.78
2023-05-13T13:42:44.540Z,43.91
2023-05-13T13:45:16.248Z,44.04
2023-05-13T13:47:46.962Z,43.97
2023-05-13T13:50:17.453Z,43.39
2023-05-13T13:52:47.895Z,43.41
2023-05-13T13:55:18.510Z,43.30
2023-05-13T13:57:49.139Z,43.39
2023-05-13T14:00:20.251Z,43.31
2023-05-13T14:02:50.820Z,43.29
2023-05-13T14:05:39.523Z,43.85
2023-05-13T14:08:10.073Z,43.57
2023-05-13T14:10:40.550Z,43.71
2023-05-13T14:13:11.173Z,43.15
2023-05-13T14:15:41.661Z,43.86
2023-05-13T14:18:12.460Z,43.19
2023-05-13T14:20:42.922Z,43.27
2023-05-13T14:23:13.296Z,43.06
2023-05-13T14:25:43.891Z,43.13
2023-05-13T14:28:14.863Z,43.89
2023-05-13T14:30:45.410Z,43.65
2023-05-13T14:33:15.875Z,43.11
2023-05-13T14:35:46.391Z,43.04
2023-05-13T14:38:17.155Z,43.06
2023-05-13T14:40:47.709Z,43.32
2023-05-13T14:43:18.242Z,43.56
2023-05-13T14:45:48.697Z,43.10
2023-05-13T14:48:19.374Z,43.03
2023-05-13T14:50:49.785Z,43.83
2023-05-13T14:53:20.236Z,43.60
2023-05-13T14:55:51.600Z,43.60
2023-05-13T14:58:22.192Z,43.77
2023-05-13T15:00:52.705Z,42.88
2023-05-13T15:03:23.194Z,43.22
2023-05-13T15:05:55.866Z,43.36
2023-05-13T15:08:26.960Z,43.69
2023-05-13T15:10:57.825Z,42.85
2023-05-13T15:13:28.803Z,43.06
2023-05-13T15:15:59.272Z,42.83
2023-05-13T15:18:29.793Z,42.83
2023-05-13T15:21:00.332Z,43.17
2023-05-13T15:23:31.020Z,43.05
2023-05-13T15:26:01.470Z,43.19
2023-05-13T15:28:31.852Z,43.04
2023-05-13T15:31:02.400Z,43.41
2023-05-13T15:33:34.107Z,42.73
2023-05-13T15:36:04.878Z,43.16
2023-05-13T15:38:35.316Z,42.79
2023-05-13T15:41:05.768Z,43.57
2023-05-13T15:43:36.202Z,43.25
2023-05-13T15:46:06.994Z,42.71
2023-05-13T15:48:38.028Z,43.33
2023-05-13T15:51:09.040Z,42.68
2023-05-13T15:53:39.470Z,42.90
2023-05-13T15:56:10.093Z,43.01
2023-05-13T15:58:58.743Z,43.32
2023-05-13T16:01:29.247Z,43.22
2023-05-13T16:03:59.721Z,42.82
2023-05-13T16:06:30.291Z,42.82
2023-05-13T16:09:03.505Z,42.81
2023-05-13T16:11:33.249Z,43.36
2023-05-13T16:14:03.632Z,42.71
2023-05-13T16:16:34.174Z,42.74
2023-05-13T16:19:07.550Z,42.71
2023-05-13T16:21:42.080Z,42.54
2023-05-13T16:24:12.777Z,42.64
2023-05-13T16:26:43.365Z,42.67
2023-05-13T16:29:14.200Z,42.69
2023-05-13T16:31:44.682Z,42.67
2023-05-13T16:34:15.560Z,42.90
2023-05-13T16:36:45.913Z,42.43
2023-05-13T16:39:16.337Z,42.57
2023-05-13T16:41:46.737Z,42.91
2023-05-13T16:44:17.092Z,43.26
2023-05-13T16:46:47.481Z,42.45
2023-05-13T16:49:17.940Z,42.98
2023-05-13T16:51:48.390Z,42.51
2023-05-13T16:54:18.871Z,42.75
2023-05-13T16:56:51.885Z,42.81
2023-05-13T16:59:26.895Z,43.44
2023-05-13T17:01:57.719Z,43.44
2023-05-13T17:04:29.802Z,42.86
2023-05-13T17:07:00.208Z,42.45
2023-05-13T17:09:32.214Z,43.09
2023-05-13T17:12:02.712Z,43.38
2023-05-13T17:14:33.163Z,42.33
2023-05-13T17:17:04.646Z,42.87
2023-05-13T17:19:35.157Z,42.95
2023-05-13T17:22:08.412Z,42.36
2023-05-13T17:24:39.977Z,43.34
2023-05-13T17:27:10.973Z,42.46
2023-05-13T17:29:41.507Z,42.58
2023-05-13T17:32:12.080Z,42.74
2023-05-13T17:34:42.304Z,43.08
2023-05-13T17:37:12.909Z,43.41
2023-05-13T17:39:43.290Z,42.69
2023-05-13T17:42:13.657Z,42.49
2023-05-13T17:44:44.182Z,43.42
2023-05-13T17:47:14.918Z,42.77
2023-05-13T17:49:45.332Z,42.45
2023-05-13T17:52:16.088Z,43.03
2023-05-13T17:54:46.411Z,42.98
2023-05-13T17:57:17.270Z,43.09
2023-05-13T17:59:47.708Z,43.27
2023-05-13T18:02:18.424Z,42.63
2023-05-13T18:04:49.061Z,42.36
2023-05-13T18:07:22.565Z,42.73
2023-05-13T18:09:53.390Z,43.21
2023-05-13T18:12:23.951Z,42.79
2023-05-13T18:14:54.614Z,42.78
2023-05-13T18:17:25.267Z,43.03
2023-05-13T18:19:55.852Z,42.65
2023-05-13T18:22:26.318Z,43.34
2023-05-13T18:24:57.015Z,42.79
2023-05-13T18:27:27.527Z,42.60
2023-05-13T18:29:57.903Z,42.98
2023-05-13T18:32:28.357Z,43.07
2023-05-13T18:34:58.800Z,42.59
2023-05-13T18:37:29.229Z,42.66
2023-05-13T18:40:00.347Z,42.93
2023-05-13T18:42:31.475Z,43.45
2023-05-13T18:45:01.948Z,42.85
2023-05-13T18:47:32.370Z,43.44
2023-05-13T18:50:02.984Z,43.34
2023-05-13T18:52:33.384Z,43.41
2023-05-13T18:55:06.614Z,43.06
2023-05-13T18:57:37.514Z,42.99
2023-05-13T19:00:08.914Z,43.12
2023-05-13T19:02:39.751Z,43.03
2023-05-13T19:05:10.914Z,43.22
2023-05-13T19:07:41.392Z,42.82
2023-05-13T19:10:12.038Z,42.80
2023-05-13T19:12:42.625Z,42.93
2023-05-13T19:15:13.263Z,43.38
2023-05-13T19:17:43.942Z,42.58
2023-05-13T19:20:32.701Z,43.01
2023-05-13T19:23:03.084Z,43.01
2023-05-13T19:25:33.408Z,43.30
2023-05-13T19:28:06.754Z,43.50
2023-05-13T19:30:37.463Z,43.44
2023-05-13T19:33:09.084Z,43.36
2023-05-13T19:35:39.606Z,43.54
2023-05-13T19:38:10.078Z,43.19
2023-05-13T19:40:40.455Z,43.12
2023-05-13T19:43:11.102Z,42.98
2023-05-13T19:45:41.421Z,42.79
2023-05-13T19:48:11.780Z,42.85
2023-05-13T19:50:43.156Z,43.04
2023-05-13T19:53:14.085Z,43.67
2023-05-13T19:55:44.464Z,43.64
2023-05-13T19:58:15.102Z,42.94
2023-05-13T20:00:45.615Z,42.84
2023-05-13T20:03:16.239Z,43.85
2023-05-13T20:06:04.427Z,42.92
2023-05-13T20:08:35.251Z,42.93
2023-05-13T20:11:05.562Z,43.75
2023-05-13T20:13:36.221Z,43.49
2023-05-13T20:16:06.880Z,43.78
2023-05-13T20:18:37.811Z,42.82
2023-05-13T20:21:08.300Z,43.04
2023-05-13T20:23:38.824Z,42.92
2023-05-13T20:26:09.790Z,43.65
2023-05-13T20:28:40.185Z,43.25
2023-05-13T20:31:10.937Z,43.03
2023-05-13T20:33:41.604Z,42.97
2023-05-13T20:36:12.191Z,43.73
2023-05-13T20:38:42.773Z,43.74
2023-05-13T20:41:13.162Z,43.20
2023-05-13T20:43:43.566Z,43.19
2023-05-13T20:46:18.197Z,43.93
2023-05-13T20:48:49.481Z,43.20
2023-05-13T20:51:20.042Z,43.11
2023-05-13T20:53:50.493Z,43.12
2023-05-13T20:56:20.911Z,43.68
2023-05-13T20:58:51.880Z,43.17
2023-05-13T21:01:22.254Z,43.33
2023-05-13T21:03:52.903Z,43.53
2023-05-13T21:06:23.556Z,43.82
2023-05-13T21:08:54.262Z,43.19
2023-05-13T21:11:24.693Z,43.37
2023-05-13T21:14:13.217Z,43.34
2023-05-13T21:16:44.102Z,43.86
2023-05-13T21:19:24.739Z,43.78
2023-05-13T21:21:55.170Z,43.73
2023-05-13T21:24:25.512Z,44.11
2023-05-13T21:26:56.677Z,43.98
2023-05-13T21:29:27.885Z,44.02
2023-05-13T21:31:58.873Z,43.46
2023-05-13T21:34:29.400Z,43.72
2023-05-13T21:36:59.841Z,43.52
2023-05-13T21:39:30.259Z,43.49
2023-05-13T21:42:02.201Z,43.82
2023-05-13T21:44:32.600Z,43.94
2023-05-13T21:47:03.047Z,43.74
2023-05-13T21:49:33.506Z,43.74
2023-05-13T21:52:04.054Z,43.87
2023-05-13T21:54:34.621Z,44.46
2023-05-13T21:57:05.239Z,43.86
2023-05-13T21:59:35.496Z,44.60
2023-05-13T22:02:06.170Z,43.89
2023-05-13T22:04:36.518Z,43.94
2023-05-13T22:07:07.034Z,44.73
2023-05-13T22:09:37.636Z,44.53
2023-05-13T22:12:08.427Z,43.98
2023-05-13T22:14:38.852Z,44.28
2023-05-13T22:17:10.518Z,43.84
2023-05-13T22:19:41.355Z,44.04
2023-05-13T22:22:11.930Z,44.64
2023-05-13T22:24:42.336Z,45.00
2023-05-13T22:27:12.861Z,44.39
2023-05-13T22:29:43.278Z,44.59
2023-05-13T22:32:13.976Z,44.27
2023-05-13T22:34:44.566Z,44.55
2023-05-13T22:37:14.966Z,44.98
2023-05-13T22:39:45.272Z,44.56
2023-05-13T22:42:15.643Z,44.95
2023-05-13T22:44:46.514Z,44.70
2023-05-13T22:47:16.996Z,44.48
2023-05-13T22:49:47.372Z,45.18
2023-05-13T22:52:17.830Z,45.25
2023-05-13T22:54:48.101Z,44.66
2023-05-13T22:57:18.646Z,45.06
2023-05-13T22:59:49.218Z,45.64
2023-05-13T23:02:19.612Z,45.31
2023-05-13T23:04:50.035Z,45.19
2023-05-13T23:07:20.463Z,45.19
2023-05-13T23:09:50.887Z,45.06
2023-05-13T23:12:21.314Z,44.90
2023-05-13T23:14:51.757Z,44.92
2023-05-13T23:17:22.276Z,45.12
2023-05-13T23:19:52.924Z,45.65
2023-05-13T23:22:23.324Z,45.45
2023-05-13T23:24:53.872Z,45.54
2023-05-13T23:27:24.402Z,45.66
2023-05-13T23:29:55.009Z,45.66
2023-05-13T23:32:26.269Z,45.80
2023-05-13T23:34:56.473Z,45.50
2023-05-13T23:37:27.234Z,45.17
2023-05-13T23:40:15.967Z,45.08
2023-05-13T23:42:46.400Z,45.36
2023-05-13T23:45:17.500Z,45.45
2023-05-13T23:47:48.276Z,45.60
2023-05-13T23:50:18.575Z,45.40
2023-05-13T23:52:52.656Z,44.97
2023-05-13T23:55:23.214Z,46.14
2023-05-13T23:57:53.587Z,45.30
